sensor_id;sensor_type;location;lat;lon;timestamp;P1;durP1;ratioP1;P2;durP2;ratioP2
20318;SDS011;10317;47.254;11.314;2022-09-17T00:01:14;1.65;;;1.63;;
20318;SDS011;10317;47.254;11.314;2022-09-17T00:03:41;1.40;;;1.40;;
20318;SDS011;10317;47.254;11.314;2022-09-17T00:06:08;1.80;;;1.30;;
20318;SDS011;10317;47.254;11.314;2022-09-17T00:08:36;1.30;;;1.30;;
20318;SDS011;10317;47.254;11.314;2022-09-17T00:11:14;2.00;;;1.65;;
20318;SDS011;10317;47.254;11.314;2022-09-17T00:13:42;1.50;;;1.50;;
20318;SDS011;10317;47.254;11.314;2022-09-17T00:16:08;1.60;;;1.50;;
20318;SDS011;10317;47.254;11.314;2022-09-17T00:18:35;1.20;;;1.20;;
20318;SDS011;10317;47.254;11.314;2022-09-17T00:21:05;1.50;;;1.50;;
20318;SDS011;10317;47.254;11.314;2022-09-17T00:23:30;1.70;;;1.60;;
20318;SDS011;10317;47.254;11.314;2022-09-17T00:25:56;5.95;;;1.60;;
20318;SDS011;10317;47.254;11.314;2022-09-17T00:28:23;1.30;;;1.30;;
20318;SDS011;10317;47.254;11.314;2022-09-17T00:30:49;2.85;;;1.40;;
20318;SDS011;10317;47.254;11.314;2022-09-17T00:33:15;1.67;;;1.58;;
20318;SDS011;10317;47.254;11.314;2022-09-17T00:35:42;1.30;;;1.30;;
20318;SDS011;10317;47.254;11.314;2022-09-17T00:38:08;1.40;;;1.40;;
20318;SDS011;10317;47.254;11.314;2022-09-17T00:40:35;1.50;;;1.40;;
20318;SDS011;10317;47.254;11.314;2022-09-17T00:43:03;2.03;;;1.67;;
20318;SDS011;10317;47.254;11.314;2022-09-17T00:45:34;2.55;;;1.50;;
20318;SDS011;10317;47.254;11.314;2022-09-17T00:48:00;1.50;;;1.50;;
20318;SDS011;10317;47.254;11.314;2022-09-17T00:50:29;1.60;;;1.50;;
20318;SDS011;10317;47.254;11.314;2022-09-17T00:53:08;1.70;;;1.60;;
20318;SDS011;10317;47.254;11.314;2022-09-17T00:56:00;2.10;;;2.00;;
20318;SDS011;10317;47.254;11.314;2022-09-17T00:58:27;1.77;;;1.67;;
20318;SDS011;10317;47.254;11.314;2022-09-17T01:00:55;1.83;;;1.73;;
20318;SDS011;10317;47.254;11.314;2022-09-17T01:03:21;3.22;;;2.08;;
20318;SDS011;10317;47.254;11.314;2022-09-17T01:08:48;1.75;;;1.65;;
20318;SDS011;10317;47.254;11.314;2022-09-17T01:11:26;1.83;;;1.73;;
20318;SDS011;10317;47.254;11.314;2022-09-17T01:32:56;1.90;;;1.80;;
20318;SDS011;10317;47.254;11.314;2022-09-17T01:41:08;1.85;;;1.75;;
20318;SDS011;10317;47.254;11.314;2022-09-17T01:43:45;1.85;;;1.75;;
20318;SDS011;10317;47.254;11.314;2022-09-17T01:48:46;2.28;;;1.90;;
20318;SDS011;10317;47.254;11.314;2022-09-17T01:51:17;1.98;;;1.88;;
20318;SDS011;10317;47.254;11.314;2022-09-17T01:53:52;2.92;;;2.20;;
20318;SDS011;10317;47.254;11.314;2022-09-17T01:56:22;1.80;;;1.77;;
20318;SDS011;10317;47.254;11.314;2022-09-17T01:58:54;4.07;;;2.10;;
20318;SDS011;10317;47.254;11.314;2022-09-17T02:01:25;2.17;;;2.08;;
20318;SDS011;10317;47.254;11.314;2022-09-17T02:03:57;4.15;;;2.00;;
20318;SDS011;10317;47.254;11.314;2022-09-17T02:06:31;2.20;;;2.03;;
20318;SDS011;10317;47.254;11.314;2022-09-17T02:11:43;1.85;;;1.77;;
20318;SDS011;10317;47.254;11.314;2022-09-17T02:14:15;4.40;;;1.77;;
20318;SDS011;10317;47.254;11.314;2022-09-17T02:16:50;1.67;;;1.58;;
20318;SDS011;10317;47.254;11.314;2022-09-17T02:19:25;2.08;;;1.70;;
20318;SDS011;10317;47.254;11.314;2022-09-17T02:30:26;1.95;;;1.88;;
20318;SDS011;10317;47.254;11.314;2022-09-17T02:32:52;1.85;;;1.70;;
20318;SDS011;10317;47.254;11.314;2022-09-17T02:35:18;1.98;;;1.70;;
20318;SDS011;10317;47.254;11.314;2022-09-17T02:37:44;1.58;;;1.58;;
20318;SDS011;10317;47.254;11.314;2022-09-17T02:40:11;1.85;;;1.75;;
20318;SDS011;10317;47.254;11.314;2022-09-17T02:42:47;1.90;;;1.90;;
20318;SDS011;10317;47.254;11.314;2022-09-17T02:51:00;5.15;;;2.10;;
20318;SDS011;10317;47.254;11.314;2022-09-17T02:56:18;1.92;;;1.83;;
20318;SDS011;10317;47.254;11.314;2022-09-17T02:58:53;4.20;;;2.25;;
20318;SDS011;10317;47.254;11.314;2022-09-17T03:01:34;2.45;;;2.25;;
20318;SDS011;10317;47.254;11.314;2022-09-17T03:04:05;1.73;;;1.50;;
20318;SDS011;10317;47.254;11.314;2022-09-17T03:06:34;2.30;;;1.80;;
20318;SDS011;10317;47.254;11.314;2022-09-17T03:09:02;2.17;;;1.92;;
20318;SDS011;10317;47.254;11.314;2022-09-17T03:11:28;5.75;;;1.88;;
20318;SDS011;10317;47.254;11.314;2022-09-17T03:13:54;2.13;;;2.03;;
20318;SDS011;10317;47.254;11.314;2022-09-17T03:16:19;1.63;;;1.63;;
20318;SDS011;10317;47.254;11.314;2022-09-17T03:18:45;1.88;;;1.67;;
20318;SDS011;10317;47.254;11.314;2022-09-17T03:21:11;2.05;;;1.60;;
20318;SDS011;10317;47.254;11.314;2022-09-17T03:23:36;2.70;;;1.92;;
20318;SDS011;10317;47.254;11.314;2022-09-17T03:26:03;1.63;;;1.60;;
20318;SDS011;10317;47.254;11.314;2022-09-17T03:28:29;1.80;;;1.70;;
20318;SDS011;10317;47.254;11.314;2022-09-17T03:30:54;5.68;;;2.88;;
20318;SDS011;10317;47.254;11.314;2022-09-17T03:33:20;2.60;;;2.40;;
20318;SDS011;10317;47.254;11.314;2022-09-17T03:35:46;3.03;;;1.98;;
20318;SDS011;10317;47.254;11.314;2022-09-17T03:38:12;2.42;;;2.20;;
20318;SDS011;10317;47.254;11.314;2022-09-17T03:40:38;2.15;;;2.05;;
20318;SDS011;10317;47.254;11.314;2022-09-17T03:43:04;2.13;;;1.92;;
20318;SDS011;10317;47.254;11.314;2022-09-17T03:45:31;2.22;;;2.13;;
20318;SDS011;10317;47.254;11.314;2022-09-17T03:47:56;2.63;;;2.50;;
20318;SDS011;10317;47.254;11.314;2022-09-17T03:50:22;2.28;;;2.05;;
20318;SDS011;10317;47.254;11.314;2022-09-17T03:52:48;2.17;;;2.00;;
20318;SDS011;10317;47.254;11.314;2022-09-17T03:55:14;2.28;;;2.08;;
20318;SDS011;10317;47.254;11.314;2022-09-17T03:57:41;2.20;;;2.15;;
20318;SDS011;10317;47.254;11.314;2022-09-17T04:00:07;1.90;;;1.80;;
20318;SDS011;10317;47.254;11.314;2022-09-17T04:02:33;3.55;;;2.15;;
20318;SDS011;10317;47.254;11.314;2022-09-17T04:04:59;2.25;;;2.05;;
20318;SDS011;10317;47.254;11.314;2022-09-17T04:07:25;2.30;;;2.03;;
20318;SDS011;10317;47.254;11.314;2022-09-17T04:09:51;2.10;;;2.00;;
20318;SDS011;10317;47.254;11.314;2022-09-17T04:12:16;2.35;;;2.25;;
20318;SDS011;10317;47.254;11.314;2022-09-17T04:14:42;2.67;;;1.80;;
20318;SDS011;10317;47.254;11.314;2022-09-17T04:17:08;1.85;;;1.75;;
20318;SDS011;10317;47.254;11.314;2022-09-17T04:19:33;1.85;;;1.52;;
20318;SDS011;10317;47.254;11.314;2022-09-17T04:21:59;2.75;;;1.83;;
20318;SDS011;10317;47.254;11.314;2022-09-17T04:24:25;1.50;;;1.50;;
20318;SDS011;10317;47.254;11.314;2022-09-17T04:26:50;1.90;;;1.80;;
20318;SDS011;10317;47.254;11.314;2022-09-17T04:29:16;2.00;;;1.90;;
20318;SDS011;10317;47.254;11.314;2022-09-17T04:31:42;1.50;;;1.40;;
20318;SDS011;10317;47.254;11.314;2022-09-17T04:34:07;1.60;;;1.60;;
20318;SDS011;10317;47.254;11.314;2022-09-17T04:36:33;1.20;;;1.20;;
20318;SDS011;10317;47.254;11.314;2022-09-17T04:38:59;1.90;;;1.80;;
20318;SDS011;10317;47.254;11.314;2022-09-17T04:41:24;2.67;;;1.75;;
20318;SDS011;10317;47.254;11.314;2022-09-17T04:43:50;1.77;;;1.67;;
20318;SDS011;10317;47.254;11.314;2022-09-17T04:46:15;1.55;;;1.55;;
20318;SDS011;10317;47.254;11.314;2022-09-17T04:48:41;2.03;;;1.92;;
20318;SDS011;10317;47.254;11.314;2022-09-17T04:51:07;1.98;;;1.58;;
20318;SDS011;10317;47.254;11.314;2022-09-17T04:53:33;1.98;;;1.88;;
20318;SDS011;10317;47.254;11.314;2022-09-17T04:55:58;1.67;;;1.65;;
20318;SDS011;10317;47.254;11.314;2022-09-17T04:58:24;1.92;;;1.70;;
20318;SDS011;10317;47.254;11.314;2022-09-17T05:00:50;2.30;;;2.10;;
20318;SDS011;10317;47.254;11.314;2022-09-17T05:03:16;2.00;;;1.90;;
20318;SDS011;10317;47.254;11.314;2022-09-17T05:05:42;4.35;;;2.13;;
20318;SDS011;10317;47.254;11.314;2022-09-17T05:08:07;1.85;;;1.75;;
20318;SDS011;10317;47.254;11.314;2022-09-17T05:10:33;2.10;;;2.00;;
20318;SDS011;10317;47.254;11.314;2022-09-17T05:12:59;1.90;;;1.77;;
20318;SDS011;10317;47.254;11.314;2022-09-17T05:15:25;1.88;;;1.77;;
20318;SDS011;10317;47.254;11.314;2022-09-17T05:17:51;1.90;;;1.80;;
20318;SDS011;10317;47.254;11.314;2022-09-17T05:20:17;2.13;;;2.03;;
20318;SDS011;10317;47.254;11.314;2022-09-17T05:22:44;2.67;;;2.03;;
20318;SDS011;10317;47.254;11.314;2022-09-17T05:25:17;2.13;;;2.00;;
20318;SDS011;10317;47.254;11.314;2022-09-17T05:27:44;2.25;;;2.13;;
20318;SDS011;10317;47.254;11.314;2022-09-17T05:30:10;2.30;;;2.10;;
20318;SDS011;10317;47.254;11.314;2022-09-17T05:32:37;1.90;;;1.80;;
20318;SDS011;10317;47.254;11.314;2022-09-17T05:35:03;3.40;;;3.20;;
20318;SDS011;10317;47.254;11.314;2022-09-17T05:37:29;2.70;;;2.50;;
20318;SDS011;10317;47.254;11.314;2022-09-17T05:39:56;2.20;;;2.10;;
20318;SDS011;10317;47.254;11.314;2022-09-17T05:42:21;2.00;;;1.90;;
20318;SDS011;10317;47.254;11.314;2022-09-17T05:44:47;2.22;;;2.00;;
20318;SDS011;10317;47.254;11.314;2022-09-17T05:47:13;2.17;;;2.08;;
20318;SDS011;10317;47.254;11.314;2022-09-17T05:49:38;2.78;;;2.58;;
20318;SDS011;10317;47.254;11.314;2022-09-17T05:52:04;2.10;;;1.95;;
20318;SDS011;10317;47.254;11.314;2022-09-17T05:54:30;2.92;;;2.53;;
20318;SDS011;10317;47.254;11.314;2022-09-17T05:56:55;2.25;;;2.15;;
20318;SDS011;10317;47.254;11.314;2022-09-17T05:59:21;4.95;;;2.15;;
20318;SDS011;10317;47.254;11.314;2022-09-17T06:01:47;2.28;;;2.17;;
20318;SDS011;10317;47.254;11.314;2022-09-17T06:04:13;2.20;;;2.08;;
20318;SDS011;10317;47.254;11.314;2022-09-17T06:06:39;2.20;;;2.10;;
20318;SDS011;10317;47.254;11.314;2022-09-17T06:09:06;2.17;;;1.98;;
20318;SDS011;10317;47.254;11.314;2022-09-17T06:11:32;2.78;;;1.95;;
20318;SDS011;10317;47.254;11.314;2022-09-17T06:13:59;3.97;;;2.10;;
20318;SDS011;10317;47.254;11.314;2022-09-17T06:16:25;2.08;;;1.98;;
20318;SDS011;10317;47.254;11.314;2022-09-17T06:18:50;1.70;;;1.60;;
20318;SDS011;10317;47.254;11.314;2022-09-17T06:21:19;2.88;;;1.40;;
20318;SDS011;10317;47.254;11.314;2022-09-17T06:23:51;1.48;;;1.38;;
20318;SDS011;10317;47.254;11.314;2022-09-17T06:26:17;1.25;;;1.20;;
20318;SDS011;10317;47.254;11.314;2022-09-17T06:28:43;2.22;;;1.50;;
20318;SDS011;10317;47.254;11.314;2022-09-17T06:31:09;2.47;;;1.20;;
20318;SDS011;10317;47.254;11.314;2022-09-17T06:33:36;1.00;;;0.90;;
20318;SDS011;10317;47.254;11.314;2022-09-17T06:36:03;0.80;;;0.80;;
20318;SDS011;10317;47.254;11.314;2022-09-17T06:38:31;0.70;;;0.70;;
20318;SDS011;10317;47.254;11.314;2022-09-17T06:40:58;0.98;;;0.90;;
20318;SDS011;10317;47.254;11.314;2022-09-17T06:43:24;2.15;;;0.82;;
20318;SDS011;10317;47.254;11.314;2022-09-17T06:45:51;0.60;;;0.60;;
20318;SDS011;10317;47.254;11.314;2022-09-17T06:48:16;0.60;;;0.60;;
20318;SDS011;10317;47.254;11.314;2022-09-17T06:50:42;0.93;;;0.70;;
20318;SDS011;10317;47.254;11.314;2022-09-17T06:53:08;1.98;;;0.60;;
20318;SDS011;10317;47.254;11.314;2022-09-17T06:55:34;0.70;;;0.57;;
20318;SDS011;10317;47.254;11.314;2022-09-17T06:57:59;0.60;;;0.60;;
20318;SDS011;10317;47.254;11.314;2022-09-17T07:00:25;1.65;;;0.70;;
20318;SDS011;10317;47.254;11.314;2022-09-17T07:02:57;3.33;;;0.80;;
20318;SDS011;10317;47.254;11.314;2022-09-17T07:05:25;0.60;;;0.60;;
20318;SDS011;10317;47.254;11.314;2022-09-17T07:07:52;0.60;;;0.60;;
20318;SDS011;10317;47.254;11.314;2022-09-17T07:10:18;0.70;;;0.70;;
20318;SDS011;10317;47.254;11.314;2022-09-17T07:12:45;0.60;;;0.60;;
20318;SDS011;10317;47.254;11.314;2022-09-17T07:15:11;0.63;;;0.63;;
20318;SDS011;10317;47.254;11.314;2022-09-17T07:17:40;0.60;;;0.60;;
20318;SDS011;10317;47.254;11.314;2022-09-17T07:20:07;0.60;;;0.60;;
20318;SDS011;10317;47.254;11.314;2022-09-17T07:22:33;1.08;;;0.70;;
20318;SDS011;10317;47.254;11.314;2022-09-17T07:24:59;0.60;;;0.60;;
20318;SDS011;10317;47.254;11.314;2022-09-17T07:27:29;0.80;;;0.80;;
20318;SDS011;10317;47.254;11.314;2022-09-17T07:29:55;0.73;;;0.73;;
20318;SDS011;10317;47.254;11.314;2022-09-17T07:32:21;1.30;;;1.20;;
20318;SDS011;10317;47.254;11.314;2022-09-17T07:34:48;0.90;;;0.90;;
20318;SDS011;10317;47.254;11.314;2022-09-17T07:37:14;0.93;;;0.93;;
20318;SDS011;10317;47.254;11.314;2022-09-17T07:39:40;1.10;;;1.10;;
20318;SDS011;10317;47.254;11.314;2022-09-17T07:42:07;0.93;;;0.93;;
20318;SDS011;10317;47.254;11.314;2022-09-17T07:44:33;0.73;;;0.73;;
20318;SDS011;10317;47.254;11.314;2022-09-17T07:46:59;1.23;;;1.13;;
20318;SDS011;10317;47.254;11.314;2022-09-17T07:49:24;0.63;;;0.63;;
20318;SDS011;10317;47.254;11.314;2022-09-17T07:51:50;0.70;;;0.70;;
20318;SDS011;10317;47.254;11.314;2022-09-17T07:54:16;0.80;;;0.80;;
20318;SDS011;10317;47.254;11.314;2022-09-17T07:56:41;0.90;;;0.70;;
20318;SDS011;10317;47.254;11.314;2022-09-17T07:59:08;0.60;;;0.60;;
20318;SDS011;10317;47.254;11.314;2022-09-17T08:01:34;1.27;;;0.60;;
20318;SDS011;10317;47.254;11.314;2022-09-17T08:04:03;3.88;;;1.73;;
20318;SDS011;10317;47.254;11.314;2022-09-17T08:06:30;0.60;;;0.60;;
20318;SDS011;10317;47.254;11.314;2022-09-17T08:08:56;0.93;;;0.75;;
20318;SDS011;10317;47.254;11.314;2022-09-17T08:11:25;0.80;;;0.80;;
20318;SDS011;10317;47.254;11.314;2022-09-17T08:13:52;0.70;;;0.70;;
20318;SDS011;10317;47.254;11.314;2022-09-17T08:16:19;0.70;;;0.70;;
20318;SDS011;10317;47.254;11.314;2022-09-17T08:18:46;0.60;;;0.60;;
20318;SDS011;10317;47.254;11.314;2022-09-17T08:21:16;0.73;;;0.73;;
20318;SDS011;10317;47.254;11.314;2022-09-17T08:23:43;0.80;;;0.80;;
20318;SDS011;10317;47.254;11.314;2022-09-17T08:26:13;0.70;;;0.70;;
20318;SDS011;10317;47.254;11.314;2022-09-17T08:28:43;4.75;;;0.68;;
20318;SDS011;10317;47.254;11.314;2022-09-17T08:31:12;0.73;;;0.73;;
20318;SDS011;10317;47.254;11.314;2022-09-17T08:33:39;1.45;;;0.70;;
20318;SDS011;10317;47.254;11.314;2022-09-17T08:36:06;0.60;;;0.60;;
20318;SDS011;10317;47.254;11.314;2022-09-17T08:38:34;0.70;;;0.70;;
20318;SDS011;10317;47.254;11.314;2022-09-17T08:46:30;1.70;;;1.27;;
20318;SDS011;10317;47.254;11.314;2022-09-17T08:55:19;0.52;;;0.52;;
20318;SDS011;10317;47.254;11.314;2022-09-17T09:00:12;1.27;;;0.60;;
20318;SDS011;10317;47.254;11.314;2022-09-17T09:03:48;1.17;;;0.88;;
20318;SDS011;10317;47.254;11.314;2022-09-17T09:10:50;0.57;;;0.57;;
20318;SDS011;10317;47.254;11.314;2022-09-17T09:13:20;0.52;;;0.52;;
20318;SDS011;10317;47.254;11.314;2022-09-17T09:15:56;0.70;;;0.70;;
20318;SDS011;10317;47.254;11.314;2022-09-17T09:18:26;1.60;;;0.70;;
20318;SDS011;10317;47.254;11.314;2022-09-17T09:21:11;0.60;;;0.60;;
20318;SDS011;10317;47.254;11.314;2022-09-17T09:23:51;0.60;;;0.60;;
20318;SDS011;10317;47.254;11.314;2022-09-17T09:26:18;0.80;;;0.60;;
20318;SDS011;10317;47.254;11.314;2022-09-17T09:34:15;0.63;;;0.63;;
20318;SDS011;10317;47.254;11.314;2022-09-17T09:36:41;0.90;;;0.90;;
20318;SDS011;10317;47.254;11.314;2022-09-17T09:39:14;0.70;;;0.70;;
20318;SDS011;10317;47.254;11.314;2022-09-17T09:44:40;1.08;;;0.80;;
20318;SDS011;10317;47.254;11.314;2022-09-17T09:52:22;0.90;;;0.90;;
20318;SDS011;10317;47.254;11.314;2022-09-17T09:57:51;1.08;;;1.00;;
20318;SDS011;10317;47.254;11.314;2022-09-17T10:03:03;0.98;;;0.98;;
20318;SDS011;10317;47.254;11.314;2022-09-17T10:05:58;0.50;;;0.50;;
20318;SDS011;10317;47.254;11.314;2022-09-17T10:08:27;1.33;;;0.52;;
20318;SDS011;10317;47.254;11.314;2022-09-17T10:10:56;0.65;;;0.65;;
20318;SDS011;10317;47.254;11.314;2022-09-17T10:13:22;0.65;;;0.65;;
20318;SDS011;10317;47.254;11.314;2022-09-17T10:15:48;0.50;;;0.50;;
20318;SDS011;10317;47.254;11.314;2022-09-17T10:18:18;0.80;;;0.80;;
20318;SDS011;10317;47.254;11.314;2022-09-17T10:20:52;0.63;;;0.63;;
20318;SDS011;10317;47.254;11.314;2022-09-17T10:23:29;1.10;;;1.00;;
20318;SDS011;10317;47.254;11.314;2022-09-17T10:25:58;0.60;;;0.60;;
20318;SDS011;10317;47.254;11.314;2022-09-17T10:28:28;0.70;;;0.70;;
20318;SDS011;10317;47.254;11.314;2022-09-17T10:31:03;0.70;;;0.70;;
20318;SDS011;10317;47.254;11.314;2022-09-17T10:33:32;0.60;;;0.60;;
20318;SDS011;10317;47.254;11.314;2022-09-17T10:36:02;0.60;;;0.60;;
20318;SDS011;10317;47.254;11.314;2022-09-17T10:38:39;0.50;;;0.50;;
20318;SDS011;10317;47.254;11.314;2022-09-17T10:41:17;1.83;;;0.85;;
20318;SDS011;10317;47.254;11.314;2022-09-17T10:43:48;0.50;;;0.50;;
20318;SDS011;10317;47.254;11.314;2022-09-17T10:46:16;1.85;;;0.77;;
20318;SDS011;10317;47.254;11.314;2022-09-17T10:48:56;0.30;;;0.30;;
20318;SDS011;10317;47.254;11.314;2022-09-17T10:51:34;0.40;;;0.40;;
20318;SDS011;10317;47.254;11.314;2022-09-17T10:54:04;0.60;;;0.60;;
20318;SDS011;10317;47.254;11.314;2022-09-17T10:56:53;1.27;;;0.50;;
20318;SDS011;10317;47.254;11.314;2022-09-17T10:59:41;0.50;;;0.50;;
20318;SDS011;10317;47.254;11.314;2022-09-17T11:10:24;0.50;;;0.50;;
20318;SDS011;10317;47.254;11.314;2022-09-17T11:13:27;0.47;;;0.47;;
20318;SDS011;10317;47.254;11.314;2022-09-17T11:18:53;0.88;;;0.60;;
20318;SDS011;10317;47.254;11.314;2022-09-17T11:32:30;0.60;;;0.60;;
20318;SDS011;10317;47.254;11.314;2022-09-17T11:35:22;0.50;;;0.50;;
20318;SDS011;10317;47.254;11.314;2022-09-17T11:37:54;0.50;;;0.50;;
20318;SDS011;10317;47.254;11.314;2022-09-17T11:40:31;0.40;;;0.40;;
20318;SDS011;10317;47.254;11.314;2022-09-17T11:46:28;1.35;;;0.50;;
20318;SDS011;10317;47.254;11.314;2022-09-17T11:49:14;0.60;;;0.60;;
20318;SDS011;10317;47.254;11.314;2022-09-17T11:54:28;0.50;;;0.50;;
20318;SDS011;10317;47.254;11.314;2022-09-17T11:57:15;1.38;;;0.70;;
20318;SDS011;10317;47.254;11.314;2022-09-17T12:00:02;0.88;;;0.80;;
20318;SDS011;10317;47.254;11.314;2022-09-17T12:02:47;0.47;;;0.47;;
20318;SDS011;10317;47.254;11.314;2022-09-17T12:05:35;0.60;;;0.60;;
20318;SDS011;10317;47.254;11.314;2022-09-17T12:14:15;0.50;;;0.50;;
20318;SDS011;10317;47.254;11.314;2022-09-17T12:16:43;0.57;;;0.40;;
20318;SDS011;10317;47.254;11.314;2022-09-17T12:19:13;0.50;;;0.50;;
20318;SDS011;10317;47.254;11.314;2022-09-17T12:21:54;0.50;;;0.50;;
20318;SDS011;10317;47.254;11.314;2022-09-17T12:24:21;0.60;;;0.60;;
20318;SDS011;10317;47.254;11.314;2022-09-17T12:29:42;1.05;;;0.40;;
20318;SDS011;10317;47.254;11.314;2022-09-17T12:48:16;0.50;;;0.40;;
20318;SDS011;10317;47.254;11.314;2022-09-17T12:53:35;0.40;;;0.40;;
20318;SDS011;10317;47.254;11.314;2022-09-17T12:56:28;0.45;;;0.45;;
20318;SDS011;10317;47.254;11.314;2022-09-17T12:59:15;0.50;;;0.50;;
20318;SDS011;10317;47.254;11.314;2022-09-17T13:12:26;0.60;;;0.60;;
20318;SDS011;10317;47.254;11.314;2022-09-17T13:15:24;0.52;;;0.52;;
20318;SDS011;10317;47.254;11.314;2022-09-17T13:18:16;0.40;;;0.40;;
20318;SDS011;10317;47.254;11.314;2022-09-17T13:21:11;0.50;;;0.50;;
20318;SDS011;10317;47.254;11.314;2022-09-17T13:23:45;0.32;;;0.32;;
20318;SDS011;10317;47.254;11.314;2022-09-17T13:26:14;0.50;;;0.50;;
20318;SDS011;10317;47.254;11.314;2022-09-17T13:31:09;0.40;;;0.40;;
20318;SDS011;10317;47.254;11.314;2022-09-17T13:39:04;0.52;;;0.40;;
20318;SDS011;10317;47.254;11.314;2022-09-17T13:41:32;0.50;;;0.50;;
20318;SDS011;10317;47.254;11.314;2022-09-17T13:44:04;0.50;;;0.50;;
20318;SDS011;10317;47.254;11.314;2022-09-17T13:46:31;0.57;;;0.57;;
20318;SDS011;10317;47.254;11.314;2022-09-17T13:48:59;0.47;;;0.47;;
20318;SDS011;10317;47.254;11.314;2022-09-17T13:54:01;1.58;;;0.40;;
20318;SDS011;10317;47.254;11.314;2022-09-17T13:56:39;0.60;;;0.60;;
20318;SDS011;10317;47.254;11.314;2022-09-17T14:09:55;0.30;;;0.30;;
20318;SDS011;10317;47.254;11.314;2022-09-17T14:17:55;1.25;;;0.40;;
20318;SDS011;10317;47.254;11.314;2022-09-17T14:20:22;0.40;;;0.40;;
20318;SDS011;10317;47.254;11.314;2022-09-17T14:22:56;0.40;;;0.40;;
20318;SDS011;10317;47.254;11.314;2022-09-17T14:25:29;0.50;;;0.50;;
20318;SDS011;10317;47.254;11.314;2022-09-17T14:28:07;0.50;;;0.50;;
20318;SDS011;10317;47.254;11.314;2022-09-17T14:30:46;0.30;;;0.30;;
20318;SDS011;10317;47.254;11.314;2022-09-17T14:33:15;0.40;;;0.40;;
20318;SDS011;10317;47.254;11.314;2022-09-17T14:35:47;0.52;;;0.40;;
20318;SDS011;10317;47.254;11.314;2022-09-17T14:46:22;1.75;;;0.45;;
20318;SDS011;10317;47.254;11.314;2022-09-17T14:48:51;0.40;;;0.40;;
20318;SDS011;10317;47.254;11.314;2022-09-17T14:53:46;0.40;;;0.40;;
20318;SDS011;10317;47.254;11.314;2022-09-17T14:59:28;0.40;;;0.40;;
20318;SDS011;10317;47.254;11.314;2022-09-17T15:02:51;1.75;;;0.50;;
20318;SDS011;10317;47.254;11.314;2022-09-17T15:04:53;0.50;;;0.50;;
20318;SDS011;10317;47.254;11.314;2022-09-17T15:07:19;0.30;;;0.30;;
20318;SDS011;10317;47.254;11.314;2022-09-17T15:09:46;0.38;;;0.38;;
20318;SDS011;10317;47.254;11.314;2022-09-17T15:12:13;0.50;;;0.50;;
20318;SDS011;10317;47.254;11.314;2022-09-17T15:14:42;0.50;;;0.50;;
20318;SDS011;10317;47.254;11.314;2022-09-17T15:17:12;0.30;;;0.30;;
20318;SDS011;10317;47.254;11.314;2022-09-17T15:19:42;0.50;;;0.50;;
20318;SDS011;10317;47.254;11.314;2022-09-17T15:22:16;0.45;;;0.45;;
20318;SDS011;10317;47.254;11.314;2022-09-17T15:30:01;1.42;;;0.60;;
20318;SDS011;10317;47.254;11.314;2022-09-17T15:32:29;0.57;;;0.50;;
20318;SDS011;10317;47.254;11.314;2022-09-17T15:37:43;0.40;;;0.40;;
20318;SDS011;10317;47.254;11.314;2022-09-17T15:40:24;0.50;;;0.50;;
20318;SDS011;10317;47.254;11.314;2022-09-17T15:43:02;0.70;;;0.50;;
20318;SDS011;10317;47.254;11.314;2022-09-17T15:45:47;0.50;;;0.47;;
20318;SDS011;10317;47.254;11.314;2022-09-17T15:48:19;0.43;;;0.43;;
20318;SDS011;10317;47.254;11.314;2022-09-17T15:50:55;0.45;;;0.45;;
20318;SDS011;10317;47.254;11.314;2022-09-17T15:53:32;0.57;;;0.57;;
20318;SDS011;10317;47.254;11.314;2022-09-17T16:08:42;0.50;;;0.50;;
20318;SDS011;10317;47.254;11.314;2022-09-17T16:11:18;0.40;;;0.40;;
20318;SDS011;10317;47.254;11.314;2022-09-17T16:13:46;0.40;;;0.40;;
20318;SDS011;10317;47.254;11.314;2022-09-17T16:16:13;1.77;;;1.73;;
20318;SDS011;10317;47.254;11.314;2022-09-17T16:18:43;0.70;;;0.70;;
20318;SDS011;10317;47.254;11.314;2022-09-17T16:21:10;0.50;;;0.50;;
20318;SDS011;10317;47.254;11.314;2022-09-17T16:23:36;0.47;;;0.47;;
20318;SDS011;10317;47.254;11.314;2022-09-17T16:26:02;0.50;;;0.50;;
20318;SDS011;10317;47.254;11.314;2022-09-17T16:28:29;0.50;;;0.50;;
20318;SDS011;10317;47.254;11.314;2022-09-17T16:30:55;1.45;;;0.57;;
20318;SDS011;10317;47.254;11.314;2022-09-17T16:33:21;0.43;;;0.43;;
20318;SDS011;10317;47.254;11.314;2022-09-17T16:35:47;0.50;;;0.50;;
20318;SDS011;10317;47.254;11.314;2022-09-17T16:38:13;0.43;;;0.40;;
20318;SDS011;10317;47.254;11.314;2022-09-17T16:40:43;0.40;;;0.40;;
20318;SDS011;10317;47.254;11.314;2022-09-17T16:43:11;0.40;;;0.40;;
20318;SDS011;10317;47.254;11.314;2022-09-17T16:45:36;0.60;;;0.60;;
20318;SDS011;10317;47.254;11.314;2022-09-17T16:48:03;0.50;;;0.50;;
20318;SDS011;10317;47.254;11.314;2022-09-17T16:50:29;0.60;;;0.60;;
20318;SDS011;10317;47.254;11.314;2022-09-17T16:52:55;1.25;;;0.60;;
20318;SDS011;10317;47.254;11.314;2022-09-17T16:55:21;0.50;;;0.50;;
20318;SDS011;10317;47.254;11.314;2022-09-17T16:57:47;0.65;;;0.65;;
20318;SDS011;10317;47.254;11.314;2022-09-17T17:00:14;0.68;;;0.68;;
20318;SDS011;10317;47.254;11.314;2022-09-17T17:02:43;0.60;;;0.60;;
20318;SDS011;10317;47.254;11.314;2022-09-17T17:05:15;0.60;;;0.60;;
20318;SDS011;10317;47.254;11.314;2022-09-17T17:07:40;0.60;;;0.60;;
20318;SDS011;10317;47.254;11.314;2022-09-17T17:10:06;0.63;;;0.63;;
20318;SDS011;10317;47.254;11.314;2022-09-17T17:12:35;0.60;;;0.60;;
20318;SDS011;10317;47.254;11.314;2022-09-17T17:15:02;1.75;;;1.27;;
20318;SDS011;10317;47.254;11.314;2022-09-17T17:17:30;1.17;;;1.10;;
20318;SDS011;10317;47.254;11.314;2022-09-17T17:19:56;1.77;;;1.00;;
20318;SDS011;10317;47.254;11.314;2022-09-17T17:22:22;2.88;;;1.52;;
20318;SDS011;10317;47.254;11.314;2022-09-17T17:24:48;1.10;;;1.10;;
20318;SDS011;10317;47.254;11.314;2022-09-17T17:27:14;1.40;;;1.30;;
20318;SDS011;10317;47.254;11.314;2022-09-17T17:29:40;1.88;;;1.20;;
20318;SDS011;10317;47.254;11.314;2022-09-17T17:32:06;1.40;;;1.30;;
20318;SDS011;10317;47.254;11.314;2022-09-17T17:34:32;1.52;;;1.42;;
20318;SDS011;10317;47.254;11.314;2022-09-17T17:36:58;1.25;;;1.25;;
20318;SDS011;10317;47.254;11.314;2022-09-17T17:39:24;1.30;;;1.20;;
20318;SDS011;10317;47.254;11.314;2022-09-17T17:41:49;1.50;;;1.40;;
20318;SDS011;10317;47.254;11.314;2022-09-17T17:44:18;1.50;;;1.42;;
20318;SDS011;10317;47.254;11.314;2022-09-17T17:46:43;1.30;;;1.30;;
20318;SDS011;10317;47.254;11.314;2022-09-17T17:49:09;1.67;;;1.58;;
20318;SDS011;10317;47.254;11.314;2022-09-17T17:51:35;1.40;;;1.30;;
20318;SDS011;10317;47.254;11.314;2022-09-17T17:54:01;1.38;;;1.27;;
20318;SDS011;10317;47.254;11.314;2022-09-17T17:56:26;1.58;;;1.10;;
20318;SDS011;10317;47.254;11.314;2022-09-17T17:58:53;1.70;;;1.60;;
20318;SDS011;10317;47.254;11.314;2022-09-17T18:01:29;2.08;;;1.98;;
20318;SDS011;10317;47.254;11.314;2022-09-17T18:03:59;0.82;;;0.82;;
20318;SDS011;10317;47.254;11.314;2022-09-17T18:06:26;1.00;;;1.00;;
20318;SDS011;10317;47.254;11.314;2022-09-17T18:08:53;1.42;;;0.60;;
20318;SDS011;10317;47.254;11.314;2022-09-17T18:11:19;0.52;;;0.50;;
20318;SDS011;10317;47.254;11.314;2022-09-17T18:13:45;0.63;;;0.60;;
20318;SDS011;10317;47.254;11.314;2022-09-17T18:16:14;0.75;;;0.55;;
20318;SDS011;10317;47.254;11.314;2022-09-17T18:18:41;2.65;;;0.88;;
20318;SDS011;10317;47.254;11.314;2022-09-17T18:21:08;0.68;;;0.68;;
20318;SDS011;10317;47.254;11.314;2022-09-17T18:23:37;0.68;;;0.68;;